createdAt,value
2019-02-05T00:01:54.851Z,4.23
2019-02-05T00:04:25.258Z,4.03
2019-02-05T00:06:55.538Z,4.13
2019-02-05T00:09:25.962Z,3.83
2019-02-05T00:11:56.219Z,3.73
2019-02-05T00:14:26.979Z,3.90
2019-02-05T00:16:57.189Z,4.30
2019-02-05T00:19:27.401Z,3.70
2019-02-05T00:21:57.878Z,3.80
2019-02-05T00:24:28.300Z,3.60
2019-02-05T00:26:59.127Z,3.40
2019-02-05T00:29:29.558Z,3.40
2019-02-05T00:31:59.794Z,3.73
2019-02-05T00:34:30.210Z,3.40
2019-02-05T00:37:00.666Z,3.83
2019-02-05T00:39:31.171Z,3.53
2019-02-05T00:42:01.438Z,3.00
2019-02-05T00:44:31.630Z,3.30
2019-02-05T00:47:02.070Z,3.13
2019-02-05T00:49:32.294Z,3.53
2019-02-05T00:52:02.707Z,3.33
2019-02-05T00:54:33.351Z,3.07
2019-02-05T00:57:03.802Z,3.00
2019-02-05T00:59:34.258Z,3.10
2019-02-05T01:02:05.010Z,2.67
2019-02-05T01:04:35.232Z,3.17
2019-02-05T01:07:05.903Z,2.80
2019-02-05T01:09:36.341Z,3.07
2019-02-05T01:12:06.532Z,2.73
2019-02-05T01:14:36.988Z,3.03
2019-02-05T01:17:07.179Z,2.97
2019-02-05T01:19:37.646Z,3.17
2019-02-05T01:22:08.418Z,2.83
2019-02-05T01:24:38.628Z,2.90
2019-02-05T01:27:09.049Z,2.90
2019-02-05T01:29:39.261Z,2.80
2019-02-05T01:32:09.454Z,2.67
2019-02-05T01:34:40.050Z,2.90
2019-02-05T01:37:10.474Z,2.77
2019-02-05T01:39:40.692Z,2.77
2019-02-05T01:42:11.199Z,2.77
2019-02-05T01:44:41.419Z,2.90
2019-02-05T01:47:11.871Z,3.20
2019-02-05T01:49:42.313Z,2.67
2019-02-05T01:52:12.754Z,2.87
2019-02-05T01:54:42.942Z,3.07
2019-02-05T01:57:13.158Z,3.23
2019-02-05T01:59:43.574Z,2.77
2019-02-05T02:02:14.179Z,2.50
2019-02-05T02:04:44.594Z,2.63
2019-02-05T02:07:14.882Z,2.67
2019-02-05T02:09:45.070Z,2.90
2019-02-05T02:12:15.518Z,2.30
2019-02-05T02:14:45.704Z,2.30
2019-02-05T02:17:16.202Z,2.60
2019-02-05T02:19:46.393Z,2.63
2019-02-05T02:22:16.675Z,2.57
2019-02-05T02:24:47.104Z,2.30
2019-02-05T02:27:17.611Z,2.40
2019-02-05T02:29:47.798Z,2.53
2019-02-05T02:32:18.250Z,2.50
2019-02-05T02:34:48.447Z,2.97
2019-02-05T02:37:18.670Z,2.30
2019-02-05T02:39:49.114Z,2.47
2019-02-05T02:42:19.329Z,2.50
2019-02-05T02:44:49.826Z,2.50
2019-02-05T02:47:20.013Z,2.63
2019-02-05T02:49:50.231Z,2.83
2019-02-05T02:52:20.432Z,2.53
2019-02-05T02:54:50.643Z,2.30
2019-02-05T02:57:20.831Z,2.00
2019-02-05T02:59:51.280Z,2.47
2019-02-05T03:02:21.474Z,2.77
2019-02-05T03:04:51.698Z,2.50
2019-02-05T03:07:21.957Z,2.50
2019-02-05T03:09:52.187Z,2.13
2019-02-05T03:12:22.826Z,2.40
2019-02-05T03:14:53.048Z,2.53
2019-02-05T03:17:23.475Z,2.63
2019-02-05T03:19:54.033Z,2.20
2019-02-05T03:22:24.535Z,2.47
2019-02-05T03:24:54.776Z,2.47
2019-02-05T03:27:24.983Z,2.40
2019-02-05T03:29:55.483Z,2.90
2019-02-05T03:32:25.910Z,2.47
2019-02-05T03:34:56.506Z,2.70
2019-02-05T03:37:26.756Z,2.87
2019-02-05T03:39:56.981Z,2.70
2019-02-05T03:42:27.190Z,3.00
2019-02-05T03:44:57.659Z,2.33
2019-02-05T03:47:28.713Z,3.30
2019-02-05T03:49:59.145Z,2.40
2019-02-05T03:52:32.364Z,2.60
2019-02-05T03:55:17.247Z,3.93
2019-02-05T03:58:14.736Z,3.50
2019-02-05T04:00:53.950Z,3.07
2019-02-05T04:03:41.942Z,3.40
2019-02-05T04:06:18.144Z,2.80
2019-02-05T04:09:09.719Z,3.60
2019-02-05T04:11:48.668Z,3.37
2019-02-05T04:14:21.929Z,3.57
2019-02-05T04:17:04.202Z,3.10
2019-02-05T04:19:55.539Z,3.40
2019-02-05T04:22:45.058Z,3.37
2019-02-05T04:25:45.510Z,3.10
2019-02-05T04:28:33.449Z,3.07
2019-02-05T04:31:09.826Z,3.27
2019-02-05T04:34:01.101Z,3.10
2019-02-05T04:36:46.354Z,2.87
2019-02-05T04:39:31.218Z,3.07
2019-02-05T04:42:10.008Z,3.67
2019-02-05T04:44:59.756Z,3.03
2019-02-05T04:47:35.945Z,3.00
2019-02-05T04:50:25.841Z,3.47
2019-02-05T04:53:05.004Z,3.47
2019-02-05T04:55:41.058Z,3.57
2019-02-05T04:58:37.047Z,3.50
2019-02-05T05:01:15.802Z,3.10
2019-02-05T05:04:09.955Z,3.33
2019-02-05T05:07:00.147Z,3.07
2019-02-05T05:09:52.783Z,3.53
2019-02-05T05:12:23.740Z,3.57
2019-02-05T05:14:54.264Z,3.13
2019-02-05T05:17:24.714Z,3.50
2019-02-05T05:19:55.207Z,2.77
2019-02-05T05:22:25.979Z,3.23
2019-02-05T05:24:56.297Z,3.40
2019-02-05T05:27:27.033Z,3.23
2019-02-05T05:29:57.292Z,3.33
2019-02-05T05:32:27.655Z,3.47
2019-02-05T05:34:57.837Z,3.03
2019-02-05T05:37:28.050Z,3.70
2019-02-05T05:39:58.478Z,3.70
2019-02-05T05:42:28.975Z,3.63
2019-02-05T05:44:59.168Z,3.33
2019-02-05T05:47:29.377Z,3.37
2019-02-05T05:49:59.567Z,3.33
2019-02-05T05:52:30.037Z,3.57
2019-02-05T05:55:00.454Z,3.50
2019-02-05T05:57:31.200Z,3.23
2019-02-05T06:00:01.857Z,3.30
2019-02-05T06:02:32.326Z,3.33
2019-02-05T06:05:02.821Z,3.30
2019-02-05T06:07:33.042Z,3.30
2019-02-05T06:10:07.238Z,3.50
2019-02-05T06:12:37.219Z,3.70
2019-02-05T06:15:10.241Z,3.60
2019-02-05T06:17:40.696Z,3.40
2019-02-05T06:20:16.386Z,3.40
2019-02-05T06:22:46.597Z,3.97
2019-02-05T06:25:16.979Z,3.67
2019-02-05T06:27:47.471Z,3.93
2019-02-05T06:30:18.200Z,3.77
2019-02-05T06:32:48.449Z,3.50
2019-02-05T06:35:18.674Z,3.97
2019-02-05T06:37:48.899Z,3.97
2019-02-05T06:40:21.471Z,3.60
2019-02-05T06:42:51.691Z,3.80
2019-02-05T06:45:21.914Z,3.57
2019-02-05T06:47:52.097Z,3.70
2019-02-05T06:50:22.385Z,3.53
2019-02-05T06:52:52.947Z,3.70
2019-02-05T06:55:23.158Z,3.43
2019-02-05T06:57:53.670Z,3.93
2019-02-05T07:00:24.346Z,3.90
2019-02-05T07:02:54.533Z,3.77
2019-02-05T07:05:24.751Z,3.80
2019-02-05T07:07:55.317Z,3.93
2019-02-05T07:10:26.278Z,3.73
2019-02-05T07:12:56.770Z,4.23
2019-02-05T07:15:26.994Z,3.80
2019-02-05T07:17:58.855Z,3.93
2019-02-05T07:20:29.037Z,3.47
2019-02-05T07:23:00.271Z,4.07
2019-02-05T07:25:30.583Z,3.87
2019-02-05T07:28:00.769Z,3.50
2019-02-05T07:30:31.227Z,3.80
2019-02-05T07:33:01.446Z,3.93
2019-02-05T07:35:31.635Z,4.00
2019-02-05T07:38:02.133Z,4.10
2019-02-05T07:40:33.951Z,3.70
2019-02-05T07:43:04.482Z,3.73
2019-02-05T07:45:34.750Z,4.17
2019-02-05T07:48:05.375Z,4.23
2019-02-05T07:50:35.558Z,4.00
2019-02-05T07:53:06.157Z,4.30
2019-02-05T07:55:36.689Z,3.87
2019-02-05T07:58:07.135Z,4.00
2019-02-05T08:00:37.340Z,4.03
2019-02-05T08:03:07.556Z,3.80
2019-02-05T08:05:37.738Z,4.50
2019-02-05T08:08:08.562Z,4.47
2019-02-05T08:10:39.135Z,4.07
2019-02-05T08:13:09.939Z,4.10
2019-02-05T08:15:40.222Z,4.00
2019-02-05T08:18:10.417Z,4.20
2019-02-05T08:20:40.635Z,3.93
2019-02-05T08:23:10.830Z,4.50
2019-02-05T08:25:41.424Z,4.33
2019-02-05T08:28:11.618Z,4.70
2019-02-05T08:30:47.458Z,4.47
2019-02-05T08:33:17.646Z,3.97
2019-02-05T08:35:48.110Z,4.03
2019-02-05T08:38:18.378Z,4.03
2019-02-05T08:40:48.779Z,4.00
2019-02-05T08:43:18.975Z,3.70
2019-02-05T08:45:56.295Z,3.87
2019-02-05T08:48:21.312Z,4.43
2019-02-05T08:50:51.539Z,4.50
2019-02-05T08:53:21.722Z,4.17
2019-02-05T08:55:52.222Z,4.20
2019-02-05T08:58:30.764Z,4.70
2019-02-05T09:00:54.403Z,4.53
2019-02-05T09:03:24.600Z,4.73
2019-02-05T09:05:54.821Z,4.20
2019-02-05T09:08:25.258Z,4.60
2019-02-05T09:10:55.771Z,4.47
2019-02-05T09:13:25.958Z,4.67
2019-02-05T09:15:56.177Z,4.50
2019-02-05T09:18:26.834Z,4.67
2019-02-05T09:20:57.286Z,4.73
2019-02-05T09:23:30.171Z,4.70
2019-02-05T09:26:00.562Z,4.77
2019-02-05T09:28:30.774Z,4.93
2019-02-05T09:31:01.231Z,4.50
2019-02-05T09:33:31.519Z,4.97
2019-02-05T09:36:01.707Z,4.87
2019-02-05T09:38:32.005Z,5.03
2019-02-05T09:41:02.405Z,4.43
2019-02-05T09:43:32.630Z,4.67
2019-02-05T09:46:02.978Z,4.90
2019-02-05T09:48:33.198Z,4.70
2019-02-05T09:51:03.398Z,4.47
2019-02-05T09:53:33.684Z,4.47
2019-02-05T09:56:04.635Z,4.47
2019-02-05T09:58:34.939Z,4.93
2019-02-05T10:01:06.009Z,4.93
2019-02-05T10:03:36.308Z,4.83
2019-02-05T10:06:06.506Z,5.10
2019-02-05T10:08:36.733Z,4.40
2019-02-05T10:11:07.208Z,4.17
2019-02-05T10:13:37.510Z,4.30
2019-02-05T10:16:07.698Z,4.70
2019-02-05T10:18:37.991Z,4.43
2019-02-05T10:21:08.399Z,4.50
2019-02-05T10:23:38.860Z,4.80
2019-02-05T10:26:09.453Z,4.80
2019-02-05T10:28:39.754Z,4.77
2019-02-05T10:31:09.974Z,4.17
2019-02-05T10:33:40.432Z,4.00
2019-02-05T10:36:10.861Z,4.30
2019-02-05T10:38:41.146Z,4.57
2019-02-05T10:41:11.530Z,4.60
2019-02-05T10:43:41.751Z,4.63
2019-02-05T10:46:12.246Z,4.33
2019-02-05T10:48:42.545Z,4.60
2019-02-05T10:51:12.967Z,4.23
2019-02-05T10:53:43.753Z,4.30
2019-02-05T10:56:14.294Z,4.00
2019-02-05T10:58:44.634Z,4.40
2019-02-05T11:01:18.386Z,4.63
2019-02-05T11:03:52.721Z,3.93
2019-02-05T11:06:24.315Z,3.97
2019-02-05T11:08:56.483Z,3.77
2019-02-05T11:11:26.703Z,3.30
2019-02-05T11:13:56.892Z,3.07
2019-02-05T11:16:27.110Z,2.87
2019-02-05T11:18:57.375Z,3.03
2019-02-05T11:21:28.038Z,3.83
2019-02-05T11:23:58.867Z,3.80
2019-02-05T11:26:29.465Z,3.13
2019-02-05T11:28:59.698Z,3.80
2019-02-05T11:31:29.926Z,3.77
2019-02-05T11:34:00.119Z,3.50
2019-02-05T11:36:30.631Z,3.47
2019-02-05T11:39:07.211Z,3.60
2019-02-05T11:41:37.430Z,4.17
2019-02-05T11:44:09.335Z,3.73
2019-02-05T11:46:39.559Z,3.27
2019-02-05T11:49:10.019Z,4.10
2019-02-05T11:51:40.246Z,3.87
2019-02-05T11:54:10.443Z,4.00
2019-02-05T11:56:40.668Z,4.10
2019-02-05T11:59:10.935Z,4.07
2019-02-05T12:01:41.395Z,3.73
2019-02-05T12:04:11.730Z,3.43
2019-02-05T12:06:42.027Z,3.67
2019-02-05T12:09:17.720Z,3.90
2019-02-05T12:11:47.947Z,4.00
2019-02-05T12:14:18.543Z,4.20
2019-02-05T12:16:48.857Z,4.10
2019-02-05T12:19:19.122Z,3.87
2019-02-05T12:21:49.340Z,4.30
2019-02-05T12:24:19.531Z,4.03
2019-02-05T12:26:49.762Z,3.77
2019-02-05T12:29:19.946Z,4.33
2019-02-05T12:31:50.420Z,4.83
2019-02-05T12:34:21.416Z,4.28
2019-02-05T12:36:51.664Z,4.33
2019-02-05T12:39:21.923Z,4.83
2019-02-05T12:41:52.137Z,4.17
2019-02-05T12:44:22.362Z,4.70
2019-02-05T12:46:52.582Z,4.60
2019-02-05T12:49:23.342Z,4.50
2019-02-05T12:51:53.906Z,5.57
2019-02-05T12:54:24.328Z,5.17
2019-02-05T12:56:54.546Z,5.27
2019-02-05T12:59:24.766Z,5.13
2019-02-05T13:01:55.559Z,4.85
2019-02-05T13:04:25.762Z,5.20
2019-02-05T13:06:57.049Z,5.20
2019-02-05T13:09:27.399Z,5.40
2019-02-05T13:11:57.609Z,4.80
2019-02-05T13:14:28.059Z,5.37
2019-02-05T13:16:58.251Z,4.90
2019-02-05T13:19:28.743Z,4.47
2019-02-05T13:21:58.939Z,5.50
2019-02-05T13:24:29.163Z,4.77
2019-02-05T13:26:59.347Z,4.67
2019-02-05T13:29:29.651Z,5.10
2019-02-05T13:31:59.848Z,5.17
2019-02-05T13:34:30.066Z,4.93
2019-02-05T13:37:00.257Z,5.47
2019-02-05T13:39:30.543Z,5.20
2019-02-05T13:42:00.730Z,5.20
2019-02-05T13:44:30.942Z,6.00
2019-02-05T13:47:01.425Z,5.03
2019-02-05T13:49:32.203Z,5.08
2019-02-05T13:52:02.394Z,5.10
2019-02-05T13:54:32.606Z,5.23
2019-02-05T13:57:02.806Z,4.73
2019-02-05T13:59:33.030Z,4.17
2019-02-05T14:02:03.572Z,4.03
2019-02-05T14:04:33.796Z,4.20
2019-02-05T14:07:04.127Z,4.77
2019-02-05T14:09:34.595Z,5.13
2019-02-05T14:12:04.939Z,4.90
2019-02-05T14:14:35.814Z,4.83
2019-02-05T14:17:06.327Z,5.50
2019-02-05T14:19:36.501Z,5.60
2019-02-05T14:22:06.719Z,5.23
2019-02-05T14:24:36.915Z,5.40
2019-02-05T14:27:07.379Z,5.97
2019-02-05T14:29:37.843Z,5.53
2019-02-05T14:32:08.878Z,6.65
2019-02-05T14:34:39.072Z,6.87
2019-02-05T14:37:09.946Z,6.12
2019-02-05T14:39:40.139Z,6.03
2019-02-05T14:42:10.600Z,6.23
2019-02-05T14:44:40.794Z,6.20
2019-02-05T14:47:11.038Z,5.95
2019-02-05T14:49:41.478Z,5.60
2019-02-05T14:52:12.518Z,7.47
2019-02-05T14:54:44.617Z,6.42
2019-02-05T14:57:15.105Z,5.97
2019-02-05T14:59:45.867Z,7.00
2019-02-05T15:02:16.671Z,7.12
2019-02-05T15:04:47.430Z,6.20
2019-02-05T15:07:18.231Z,6.20
2019-02-05T15:09:48.698Z,6.93
2019-02-05T15:12:18.946Z,6.60
2019-02-05T15:14:50.341Z,6.30
2019-02-05T15:17:21.289Z,6.90
2019-02-05T15:19:52.072Z,5.92
2019-02-05T15:22:23.126Z,6.12
2019-02-05T15:24:54.135Z,5.97
2019-02-05T15:27:24.930Z,6.03
2019-02-05T15:29:55.699Z,6.22
2019-02-05T15:32:33.495Z,6.37
2019-02-05T15:35:06.081Z,5.60
2019-02-05T15:37:37.126Z,6.60
2019-02-05T15:40:10.978Z,6.42
2019-02-05T15:42:41.792Z,6.42
2019-02-05T15:45:14.423Z,6.20
2019-02-05T15:47:44.823Z,5.63
2019-02-05T15:50:15.731Z,6.03
2019-02-05T15:52:46.530Z,6.97
2019-02-05T15:55:17.438Z,6.72
2019-02-05T15:57:47.659Z,6.40
2019-02-05T16:00:21.528Z,6.22
2019-02-05T16:02:52.412Z,5.35
2019-02-05T16:05:23.271Z,6.05
2019-02-05T16:07:53.779Z,6.33
2019-02-05T16:10:24.816Z,7.03
2019-02-05T16:12:55.384Z,6.50
2019-02-05T16:15:25.639Z,6.87
2019-02-05T16:17:56.683Z,6.12
2019-02-05T16:20:26.890Z,6.30
2019-02-05T16:22:57.690Z,6.78
2019-02-05T16:25:27.907Z,6.73
2019-02-05T16:27:59.086Z,6.65
2019-02-05T16:30:30.807Z,6.63
2019-02-05T16:33:01.172Z,6.20
2019-02-05T16:35:32.050Z,7.03
2019-02-05T16:38:02.902Z,7.65
2019-02-05T16:40:40.026Z,7.30
2019-02-05T16:43:10.295Z,7.10
2019-02-05T16:45:40.574Z,7.50
2019-02-05T16:48:10.775Z,6.87
2019-02-05T16:50:48.271Z,7.23
2019-02-05T16:53:18.479Z,7.23
2019-02-05T16:55:49.279Z,6.70
2019-02-05T16:58:19.555Z,6.70
2019-02-05T17:00:49.773Z,6.57
2019-02-05T17:03:20.222Z,5.75
2019-02-05T17:05:51.259Z,6.10
2019-02-05T17:08:21.720Z,6.77
2019-02-05T17:10:52.157Z,6.70
2019-02-05T17:13:22.374Z,6.20
2019-02-05T17:15:52.568Z,6.80
2019-02-05T17:18:24.001Z,6.93
2019-02-05T17:20:54.687Z,6.40
2019-02-05T17:23:24.906Z,6.43
2019-02-05T17:25:55.363Z,6.63
2019-02-05T17:28:25.828Z,6.53
2019-02-05T17:30:56.065Z,7.13
2019-02-05T17:33:26.886Z,6.37
2019-02-05T17:35:57.102Z,6.33
2019-02-05T17:38:27.515Z,6.10
2019-02-05T17:40:57.759Z,7.83
2019-02-05T17:43:27.986Z,6.67
2019-02-05T17:45:58.178Z,7.53
2019-02-05T17:48:28.583Z,7.00
2019-02-05T17:50:58.824Z,8.03
2019-02-05T17:53:29.015Z,7.63
2019-02-05T17:55:59.236Z,7.20
2019-02-05T17:58:29.439Z,7.37
2019-02-05T18:01:01.317Z,7.80
2019-02-05T18:03:31.504Z,7.87
2019-02-05T18:06:01.803Z,7.43
2019-02-05T18:08:31.999Z,7.97
2019-02-05T18:11:02.218Z,8.40
2019-02-05T18:13:32.651Z,8.80
2019-02-05T18:16:04.290Z,7.93
2019-02-05T18:18:34.724Z,7.73
2019-02-05T18:21:05.350Z,8.13
2019-02-05T18:23:35.539Z,8.90
2019-02-05T18:26:06.142Z,9.10
2019-02-05T18:28:37.018Z,8.57
2019-02-05T18:31:07.251Z,9.03
2019-02-05T18:33:37.446Z,8.60
2019-02-05T18:36:07.671Z,8.10
2019-02-05T18:38:37.934Z,8.80
2019-02-05T18:41:08.176Z,7.87
2019-02-05T18:43:38.403Z,7.40
2019-02-05T18:46:08.674Z,6.97
2019-02-05T18:48:38.880Z,7.23
2019-02-05T18:51:09.119Z,7.50
2019-02-05T18:53:39.319Z,7.50
2019-02-05T18:56:09.550Z,7.70
2019-02-05T18:58:40.019Z,7.97
2019-02-05T19:01:10.510Z,7.73
2019-02-05T19:03:40.808Z,7.90
2019-02-05T19:06:11.006Z,8.33
2019-02-05T19:08:41.226Z,8.30
2019-02-05T19:11:11.689Z,8.10
2019-02-05T19:13:42.486Z,7.43
2019-02-05T19:16:12.910Z,7.00
2019-02-05T19:18:43.730Z,7.53
2019-02-05T19:21:14.211Z,7.53
2019-02-05T19:23:44.800Z,7.70
2019-02-05T19:26:16.722Z,7.53
2019-02-05T19:28:46.952Z,7.30
2019-02-05T19:31:18.774Z,8.00
2019-02-05T19:33:48.998Z,7.47
2019-02-05T19:36:19.185Z,7.47
2019-02-05T19:38:49.822Z,8.17
2019-02-05T19:41:20.018Z,7.77
2019-02-05T19:43:50.238Z,7.80
2019-02-05T19:46:38.579Z,8.07
2019-02-05T19:49:20.323Z,7.37
2019-02-05T19:51:42.662Z,8.00
2019-02-05T19:54:13.299Z,8.20
2019-02-05T19:56:43.486Z,7.83
2019-02-05T19:59:14.222Z,8.40
2019-02-05T20:01:44.446Z,9.07
2019-02-05T20:04:14.666Z,8.53
2019-02-05T20:06:45.037Z,9.07
2019-02-05T20:09:15.258Z,9.97
2019-02-05T20:11:45.446Z,8.90
2019-02-05T20:14:15.668Z,8.37
2019-02-05T20:16:45.888Z,9.70
2019-02-05T20:19:16.150Z,9.00
2019-02-05T20:21:46.542Z,9.47
2019-02-05T20:24:16.971Z,9.33
2019-02-05T20:26:47.778Z,9.00
2019-02-05T20:29:18.062Z,9.83
2019-02-05T20:31:48.519Z,10.60
2019-02-05T20:34:18.719Z,10.27
2019-02-05T20:36:49.183Z,10.97
2019-02-05T20:39:19.389Z,8.87
2019-02-05T20:41:52.537Z,7.63
2019-02-05T20:44:21.895Z,8.23
2019-02-05T20:46:52.495Z,7.87
2019-02-05T20:49:25.550Z,7.47
2019-02-05T20:51:55.863Z,6.57
2019-02-05T20:54:26.292Z,6.37
2019-02-05T20:56:56.751Z,5.90
2019-02-05T20:59:30.148Z,6.07
2019-02-05T21:01:59.515Z,5.70
2019-02-05T21:04:30.146Z,5.07
2019-02-05T21:07:00.352Z,4.77
2019-02-05T21:09:30.775Z,4.13
2019-02-05T21:12:01.227Z,5.10
2019-02-05T21:14:31.441Z,5.70
2019-02-05T21:17:01.931Z,5.53
2019-02-05T21:19:32.810Z,6.17
2019-02-05T21:22:02.997Z,6.03
2019-02-05T21:24:33.420Z,5.80
2019-02-05T21:27:03.945Z,6.37
2019-02-05T21:29:34.126Z,5.73
2019-02-05T21:32:04.478Z,5.70
2019-02-05T21:34:34.945Z,5.33
2019-02-05T21:37:05.475Z,5.57
2019-02-05T21:39:35.894Z,5.93
2019-02-05T21:42:06.480Z,4.57
2019-02-05T21:44:36.774Z,4.97
2019-02-05T21:47:07.207Z,5.17
2019-02-05T21:49:37.410Z,4.73
2019-02-05T21:52:07.656Z,4.13
2019-02-05T21:54:38.149Z,4.67
2019-02-05T21:57:08.450Z,4.73
2019-02-05T21:59:38.637Z,4.63
2019-02-05T22:02:08.855Z,5.30
2019-02-05T22:04:39.224Z,4.77
2019-02-05T22:07:09.549Z,5.10
2019-02-05T22:09:40.055Z,4.67
2019-02-05T22:12:10.330Z,5.33
2019-02-05T22:14:40.596Z,4.93
2019-02-05T22:17:11.191Z,4.53
2019-02-05T22:19:41.683Z,4.43
2019-02-05T22:22:11.898Z,4.40
2019-02-05T22:24:44.696Z,5.07
2019-02-05T22:27:14.005Z,4.57
2019-02-05T22:29:44.197Z,4.57
2019-02-05T22:32:14.697Z,4.67
2019-02-05T22:34:44.910Z,4.40
2019-02-05T22:37:15.162Z,4.93
2019-02-05T22:39:46.050Z,4.93
2019-02-05T22:42:17.381Z,3.87
2019-02-05T22:44:47.654Z,5.13
2019-02-05T22:47:20.949Z,4.40
2019-02-05T22:49:51.191Z,4.47
2019-02-05T22:52:21.697Z,4.07
2019-02-05T22:54:52.215Z,4.33
2019-02-05T22:57:22.684Z,4.20
2019-02-05T23:00:33.931Z,4.07
2019-02-05T23:03:04.218Z,3.90
2019-02-05T23:05:52.389Z,4.03
2019-02-05T23:08:22.687Z,4.50
2019-02-05T23:11:13.802Z,4.27
2019-02-05T23:13:47.009Z,4.47
2019-02-05T23:16:17.206Z,4.90
2019-02-05T23:18:47.956Z,4.13
2019-02-05T23:21:18.149Z,4.47
2019-02-05T23:23:48.451Z,4.30
2019-02-05T23:26:19.056Z,4.07
2019-02-05T23:28:49.322Z,4.50
2019-02-05T23:31:19.513Z,4.20
2019-02-05T23:33:49.790Z,4.40
2019-02-05T23:36:20.013Z,4.70
2019-02-05T23:38:50.203Z,4.00
2019-02-05T23:41:20.414Z,4.47
2019-02-05T23:43:50.859Z,4.60
2019-02-05T23:46:21.088Z,3.50
2019-02-05T23:48:51.269Z,3.90
2019-02-05T23:51:21.740Z,4.20
2019-02-05T23:53:52.179Z,4.27
2019-02-05T23:56:25.784Z,4.10
2019-02-05T23:58:54.522Z,4.90
